sensor_id;sensor_type;location;lat;lon;timestamp;P1;durP1;ratioP1;P2;durP2;ratioP2
23712;SDS011;12035;49.978;8.298;2022-07-04T00:00:31;1.85;;;0.60;;
23712;SDS011;12035;49.978;8.298;2022-07-04T00:05:28;2.88;;;0.75;;
23712;SDS011;12035;49.978;8.298;2022-07-04T00:10:28;1.40;;;0.55;;
23712;SDS011;12035;49.978;8.298;2022-07-04T00:15:27;2.85;;;0.70;;
23712;SDS011;12035;49.978;8.298;2022-07-04T00:20:24;2.00;;;0.70;;
23712;SDS011;12035;49.978;8.298;2022-07-04T00:25:21;2.20;;;0.88;;
23712;SDS011;12035;49.978;8.298;2022-07-04T00:30:18;3.05;;;0.75;;
23712;SDS011;12035;49.978;8.298;2022-07-04T00:35:17;2.30;;;0.60;;
23712;SDS011;12035;49.978;8.298;2022-07-04T00:40:14;1.98;;;0.50;;
23712;SDS011;12035;49.978;8.298;2022-07-04T00:45:11;1.77;;;0.80;;
23712;SDS011;12035;49.978;8.298;2022-07-04T00:50:08;2.13;;;0.52;;
23712;SDS011;12035;49.978;8.298;2022-07-04T00:55:08;3.20;;;0.60;;
23712;SDS011;12035;49.978;8.298;2022-07-04T01:00:06;2.15;;;0.73;;
23712;SDS011;12035;49.978;8.298;2022-07-04T01:05:05;2.45;;;0.75;;
23712;SDS011;12035;49.978;8.298;2022-07-04T01:10:03;1.52;;;0.70;;
23712;SDS011;12035;49.978;8.298;2022-07-04T01:15:02;5.80;;;0.80;;
23712;SDS011;12035;49.978;8.298;2022-07-04T01:20:01;1.10;;;0.60;;
23712;SDS011;12035;49.978;8.298;2022-07-04T01:25:01;2.10;;;0.73;;
23712;SDS011;12035;49.978;8.298;2022-07-04T01:29:58;1.83;;;0.70;;
23712;SDS011;12035;49.978;8.298;2022-07-04T01:34:55;0.73;;;0.50;;
23712;SDS011;12035;49.978;8.298;2022-07-04T01:39:53;2.15;;;0.80;;
23712;SDS011;12035;49.978;8.298;2022-07-04T01:44:51;2.17;;;0.82;;
23712;SDS011;12035;49.978;8.298;2022-07-04T01:49:48;1.60;;;0.70;;
23712;SDS011;12035;49.978;8.298;2022-07-04T01:54:45;1.17;;;0.50;;
23712;SDS011;12035;49.978;8.298;2022-07-04T01:59:42;2.05;;;0.60;;
23712;SDS011;12035;49.978;8.298;2022-07-04T02:04:58;1.63;;;0.70;;
23712;SDS011;12035;49.978;8.298;2022-07-04T02:09:55;4.55;;;1.13;;
23712;SDS011;12035;49.978;8.298;2022-07-04T02:14:52;3.47;;;0.80;;
23712;SDS011;12035;49.978;8.298;2022-07-04T02:19:49;2.83;;;0.70;;
23712;SDS011;12035;49.978;8.298;2022-07-04T02:24:48;3.15;;;0.95;;
23712;SDS011;12035;49.978;8.298;2022-07-04T02:29:45;1.25;;;0.80;;
23712;SDS011;12035;49.978;8.298;2022-07-04T02:34:42;1.23;;;0.60;;
23712;SDS011;12035;49.978;8.298;2022-07-04T02:39:39;2.65;;;0.85;;
23712;SDS011;12035;49.978;8.298;2022-07-04T02:44:38;2.08;;;0.80;;
23712;SDS011;12035;49.978;8.298;2022-07-04T02:49:36;2.47;;;0.95;;
23712;SDS011;12035;49.978;8.298;2022-07-04T02:54:33;2.10;;;1.20;;
23712;SDS011;12035;49.978;8.298;2022-07-04T02:59:30;3.05;;;1.00;;
23712;SDS011;12035;49.978;8.298;2022-07-04T03:04:29;5.22;;;1.15;;
23712;SDS011;12035;49.978;8.298;2022-07-04T03:09:26;2.65;;;0.80;;
23712;SDS011;12035;49.978;8.298;2022-07-04T03:14:23;3.28;;;0.90;;
23712;SDS011;12035;49.978;8.298;2022-07-04T03:19:20;4.82;;;1.10;;
23712;SDS011;12035;49.978;8.298;2022-07-04T03:24:18;2.92;;;1.05;;
23712;SDS011;12035;49.978;8.298;2022-07-04T03:29:15;2.10;;;1.05;;
23712;SDS011;12035;49.978;8.298;2022-07-04T03:34:12;2.00;;;1.00;;
23712;SDS011;12035;49.978;8.298;2022-07-04T03:39:10;2.65;;;1.08;;
23712;SDS011;12035;49.978;8.298;2022-07-04T03:44:08;2.33;;;1.13;;
23712;SDS011;12035;49.978;8.298;2022-07-04T03:49:05;2.05;;;0.90;;
23712;SDS011;12035;49.978;8.298;2022-07-04T03:54:03;2.03;;;0.88;;
23712;SDS011;12035;49.978;8.298;2022-07-04T03:59:00;4.57;;;0.90;;
23712;SDS011;12035;49.978;8.298;2022-07-04T04:03:58;2.88;;;1.00;;
23712;SDS011;12035;49.978;8.298;2022-07-04T04:09:12;1.65;;;0.90;;
23712;SDS011;12035;49.978;8.298;2022-07-04T04:14:12;9.57;;;1.73;;
23712;SDS011;12035;49.978;8.298;2022-07-04T04:19:11;2.63;;;1.00;;
23712;SDS011;12035;49.978;8.298;2022-07-04T04:24:09;3.65;;;1.50;;
23712;SDS011;12035;49.978;8.298;2022-07-04T04:29:06;2.95;;;1.10;;
23712;SDS011;12035;49.978;8.298;2022-07-04T04:34:03;2.45;;;1.05;;
23712;SDS011;12035;49.978;8.298;2022-07-04T04:39:02;4.72;;;1.20;;
23712;SDS011;12035;49.978;8.298;2022-07-04T04:43:59;5.65;;;1.13;;
23712;SDS011;12035;49.978;8.298;2022-07-04T04:48:56;5.72;;;0.90;;
23712;SDS011;12035;49.978;8.298;2022-07-04T04:53:53;6.95;;;1.60;;
23712;SDS011;12035;49.978;8.298;2022-07-04T04:58:52;3.63;;;1.00;;
23712;SDS011;12035;49.978;8.298;2022-07-04T05:03:49;3.42;;;1.15;;
23712;SDS011;12035;49.978;8.298;2022-07-04T05:08:46;2.17;;;0.90;;
23712;SDS011;12035;49.978;8.298;2022-07-04T05:13:43;1.83;;;0.90;;
23712;SDS011;12035;49.978;8.298;2022-07-04T05:18:42;2.17;;;1.02;;
23712;SDS011;12035;49.978;8.298;2022-07-04T05:23:39;2.80;;;1.20;;
23712;SDS011;12035;49.978;8.298;2022-07-04T05:28:36;2.05;;;0.90;;
23712;SDS011;12035;49.978;8.298;2022-07-04T05:33:33;2.38;;;0.93;;
23712;SDS011;12035;49.978;8.298;2022-07-04T05:38:31;2.05;;;0.90;;
23712;SDS011;12035;49.978;8.298;2022-07-04T05:43:29;5.38;;;1.20;;
23712;SDS011;12035;49.978;8.298;2022-07-04T05:48:26;2.13;;;0.90;;
23712;SDS011;12035;49.978;8.298;2022-07-04T05:53:23;3.70;;;0.90;;
23712;SDS011;12035;49.978;8.298;2022-07-04T05:58:22;2.90;;;0.98;;
23712;SDS011;12035;49.978;8.298;2022-07-04T06:03:19;3.00;;;1.10;;
23712;SDS011;12035;49.978;8.298;2022-07-04T06:08:16;3.00;;;0.80;;
23712;SDS011;12035;49.978;8.298;2022-07-04T06:13:13;2.30;;;0.85;;
23712;SDS011;12035;49.978;8.298;2022-07-04T06:18:11;3.60;;;0.90;;
23712;SDS011;12035;49.978;8.298;2022-07-04T06:23:10;6.30;;;1.08;;
23712;SDS011;12035;49.978;8.298;2022-07-04T06:28:07;3.72;;;1.10;;
23712;SDS011;12035;49.978;8.298;2022-07-04T06:33:04;1.83;;;1.10;;
23712;SDS011;12035;49.978;8.298;2022-07-04T06:38:03;3.50;;;0.90;;
23712;SDS011;12035;49.978;8.298;2022-07-04T06:43:00;2.13;;;1.02;;
23712;SDS011;12035;49.978;8.298;2022-07-04T06:47:58;5.53;;;1.13;;
23712;SDS011;12035;49.978;8.298;2022-07-04T06:52:56;5.32;;;0.98;;
23712;SDS011;12035;49.978;8.298;2022-07-04T06:57:54;2.80;;;1.13;;
23712;SDS011;12035;49.978;8.298;2022-07-04T07:02:52;2.42;;;0.77;;
23712;SDS011;12035;49.978;8.298;2022-07-04T07:07:49;1.73;;;1.02;;
23712;SDS011;12035;49.978;8.298;2022-07-04T07:12:46;5.22;;;1.20;;
23712;SDS011;12035;49.978;8.298;2022-07-04T07:17:45;2.78;;;0.95;;
23712;SDS011;12035;49.978;8.298;2022-07-04T07:22:42;2.67;;;1.20;;
23712;SDS011;12035;49.978;8.298;2022-07-04T07:27:40;1.33;;;0.70;;
23712;SDS011;12035;49.978;8.298;2022-07-04T07:32:37;2.97;;;1.00;;
23712;SDS011;12035;49.978;8.298;2022-07-04T07:37:35;1.63;;;0.80;;
23712;SDS011;12035;49.978;8.298;2022-07-04T07:42:32;3.38;;;1.15;;
23712;SDS011;12035;49.978;8.298;2022-07-04T07:47:29;3.90;;;1.30;;
23712;SDS011;12035;49.978;8.298;2022-07-04T07:52:27;2.95;;;0.82;;
23712;SDS011;12035;49.978;8.298;2022-07-04T07:57:26;1.38;;;0.70;;
23712;SDS011;12035;49.978;8.298;2022-07-04T08:02:24;3.40;;;0.93;;
23712;SDS011;12035;49.978;8.298;2022-07-04T08:07:35;3.70;;;0.75;;
23712;SDS011;12035;49.978;8.298;2022-07-04T08:12:33;5.85;;;1.13;;
23712;SDS011;12035;49.978;8.298;2022-07-04T08:17:31;3.42;;;0.90;;
23712;SDS011;12035;49.978;8.298;2022-07-04T08:22:28;3.85;;;0.80;;
23712;SDS011;12035;49.978;8.298;2022-07-04T08:27:25;2.85;;;0.80;;
23712;SDS011;12035;49.978;8.298;2022-07-04T08:32:24;3.80;;;1.10;;
23712;SDS011;12035;49.978;8.298;2022-07-04T08:37:21;2.75;;;0.70;;
23712;SDS011;12035;49.978;8.298;2022-07-04T08:42:19;1.55;;;0.63;;
23712;SDS011;12035;49.978;8.298;2022-07-04T08:47:19;1.48;;;0.60;;
23712;SDS011;12035;49.978;8.298;2022-07-04T08:52:21;2.10;;;0.63;;
23712;SDS011;12035;49.978;8.298;2022-07-04T08:57:32;2.55;;;0.70;;
23712;SDS011;12035;49.978;8.298;2022-07-04T09:02:46;2.20;;;0.77;;
23712;SDS011;12035;49.978;8.298;2022-07-04T09:07:45;3.47;;;0.70;;
23712;SDS011;12035;49.978;8.298;2022-07-04T09:12:43;2.30;;;0.70;;
23712;SDS011;12035;49.978;8.298;2022-07-04T09:17:40;1.92;;;0.80;;
23712;SDS011;12035;49.978;8.298;2022-07-04T09:22:37;2.33;;;0.70;;
23712;SDS011;12035;49.978;8.298;2022-07-04T09:27:36;1.88;;;0.80;;
23712;SDS011;12035;49.978;8.298;2022-07-04T09:32:36;2.75;;;0.70;;
23712;SDS011;12035;49.978;8.298;2022-07-04T09:37:35;3.15;;;0.60;;
23712;SDS011;12035;49.978;8.298;2022-07-04T09:42:37;2.88;;;0.75;;
23712;SDS011;12035;49.978;8.298;2022-07-04T09:47:40;1.80;;;0.80;;
23712;SDS011;12035;49.978;8.298;2022-07-04T09:52:56;4.53;;;0.70;;
23712;SDS011;12035;49.978;8.298;2022-07-04T09:57:56;3.88;;;0.80;;
23712;SDS011;12035;49.978;8.298;2022-07-04T10:02:55;1.45;;;0.60;;
23712;SDS011;12035;49.978;8.298;2022-07-04T10:07:54;1.88;;;0.55;;
23712;SDS011;12035;49.978;8.298;2022-07-04T10:12:54;3.92;;;0.60;;
23712;SDS011;12035;49.978;8.298;2022-07-04T10:17:55;0.88;;;0.50;;
23712;SDS011;12035;49.978;8.298;2022-07-04T10:22:52;6.80;;;0.70;;
23712;SDS011;12035;49.978;8.298;2022-07-04T10:27:49;1.40;;;0.40;;
23712;SDS011;12035;49.978;8.298;2022-07-04T10:32:48;3.35;;;0.60;;
23712;SDS011;12035;49.978;8.298;2022-07-04T10:37:59;1.80;;;0.52;;
23712;SDS011;12035;49.978;8.298;2022-07-04T10:42:59;1.38;;;0.73;;
23712;SDS011;12035;49.978;8.298;2022-07-04T10:47:58;0.95;;;0.40;;
23712;SDS011;12035;49.978;8.298;2022-07-04T10:53:08;2.05;;;0.40;;
23712;SDS011;12035;49.978;8.298;2022-07-04T10:58:06;1.35;;;0.63;;
23712;SDS011;12035;49.978;8.298;2022-07-04T11:03:15;1.55;;;0.73;;
23712;SDS011;12035;49.978;8.298;2022-07-04T11:08:15;2.80;;;0.40;;
23712;SDS011;12035;49.978;8.298;2022-07-04T11:13:15;1.98;;;0.63;;
23712;SDS011;12035;49.978;8.298;2022-07-04T11:18:14;1.00;;;0.40;;
23712;SDS011;12035;49.978;8.298;2022-07-04T11:23:13;2.80;;;0.65;;
23712;SDS011;12035;49.978;8.298;2022-07-04T11:28:17;2.05;;;0.40;;
23712;SDS011;12035;49.978;8.298;2022-07-04T11:33:18;1.20;;;0.40;;
23712;SDS011;12035;49.978;8.298;2022-07-04T11:38:19;1.73;;;0.45;;
23712;SDS011;12035;49.978;8.298;2022-07-04T11:43:16;0.85;;;0.47;;
23712;SDS011;12035;49.978;8.298;2022-07-04T11:48:36;1.88;;;0.50;;
23712;SDS011;12035;49.978;8.298;2022-07-04T11:53:33;3.00;;;0.50;;
23712;SDS011;12035;49.978;8.298;2022-07-04T11:58:38;3.38;;;0.55;;
23712;SDS011;12035;49.978;8.298;2022-07-04T12:03:37;1.90;;;0.40;;
23712;SDS011;12035;49.978;8.298;2022-07-04T12:08:34;1.48;;;0.57;;
23712;SDS011;12035;49.978;8.298;2022-07-04T12:13:31;2.38;;;0.50;;
23712;SDS011;12035;49.978;8.298;2022-07-04T12:18:29;1.38;;;0.50;;
23712;SDS011;12035;49.978;8.298;2022-07-04T12:23:28;1.48;;;0.63;;
23712;SDS011;12035;49.978;8.298;2022-07-04T12:28:33;1.67;;;0.60;;
23712;SDS011;12035;49.978;8.298;2022-07-04T12:33:32;1.95;;;0.47;;
23712;SDS011;12035;49.978;8.298;2022-07-04T12:38:35;0.98;;;0.30;;
23712;SDS011;12035;49.978;8.298;2022-07-04T12:43:45;2.37;;;0.50;;
23712;SDS011;12035;49.978;8.298;2022-07-04T12:48:47;0.68;;;0.30;;
23712;SDS011;12035;49.978;8.298;2022-07-04T12:53:48;0.68;;;0.43;;
23712;SDS011;12035;49.978;8.298;2022-07-04T12:58:47;1.02;;;0.40;;
23712;SDS011;12035;49.978;8.298;2022-07-04T13:03:44;1.92;;;0.50;;
23712;SDS011;12035;49.978;8.298;2022-07-04T13:08:41;5.47;;;1.23;;
23712;SDS011;12035;49.978;8.298;2022-07-04T13:13:40;0.77;;;0.30;;
23712;SDS011;12035;49.978;8.298;2022-07-04T13:18:37;0.90;;;0.40;;
23712;SDS011;12035;49.978;8.298;2022-07-04T13:23:34;2.55;;;0.40;;
23712;SDS011;12035;49.978;8.298;2022-07-04T13:28:32;0.77;;;0.30;;
23712;SDS011;12035;49.978;8.298;2022-07-04T13:33:30;1.63;;;0.40;;
23712;SDS011;12035;49.978;8.298;2022-07-04T13:38:27;2.00;;;0.50;;
23712;SDS011;12035;49.978;8.298;2022-07-04T13:43:24;1.23;;;0.70;;
23712;SDS011;12035;49.978;8.298;2022-07-04T13:48:23;2.13;;;0.70;;
23712;SDS011;12035;49.978;8.298;2022-07-04T13:53:22;4.03;;;0.65;;
23712;SDS011;12035;49.978;8.298;2022-07-04T13:58:19;0.75;;;0.40;;
23712;SDS011;12035;49.978;8.298;2022-07-04T14:03:16;1.13;;;0.50;;
23712;SDS011;12035;49.978;8.298;2022-07-04T14:08:14;2.55;;;0.55;;
23712;SDS011;12035;49.978;8.298;2022-07-04T14:13:13;2.35;;;0.60;;
23712;SDS011;12035;49.978;8.298;2022-07-04T14:18:10;1.58;;;0.50;;
23712;SDS011;12035;49.978;8.298;2022-07-04T14:23:08;1.35;;;0.47;;
23712;SDS011;12035;49.978;8.298;2022-07-04T14:28:06;1.40;;;0.50;;
23712;SDS011;12035;49.978;8.298;2022-07-04T14:33:04;0.68;;;0.40;;
23712;SDS011;12035;49.978;8.298;2022-07-04T14:38:01;1.33;;;0.60;;
23712;SDS011;12035;49.978;8.298;2022-07-04T14:42:58;0.60;;;0.35;;
23712;SDS011;12035;49.978;8.298;2022-07-04T14:47:55;3.22;;;0.50;;
23712;SDS011;12035;49.978;8.298;2022-07-04T14:52:53;3.40;;;0.60;;
23712;SDS011;12035;49.978;8.298;2022-07-04T14:57:50;0.70;;;0.50;;
23712;SDS011;12035;49.978;8.298;2022-07-04T15:02:47;0.68;;;0.40;;
23712;SDS011;12035;49.978;8.298;2022-07-04T15:07:45;1.90;;;0.50;;
23712;SDS011;12035;49.978;8.298;2022-07-04T15:12:43;1.13;;;0.40;;
23712;SDS011;12035;49.978;8.298;2022-07-04T15:17:42;0.60;;;0.30;;
23712;SDS011;12035;49.978;8.298;2022-07-04T15:22:39;1.55;;;0.50;;
23712;SDS011;12035;49.978;8.298;2022-07-04T15:27:55;1.73;;;0.50;;
23712;SDS011;12035;49.978;8.298;2022-07-04T15:32:52;1.27;;;0.50;;
23712;SDS011;12035;49.978;8.298;2022-07-04T15:37:49;0.80;;;0.40;;
23712;SDS011;12035;49.978;8.298;2022-07-04T15:42:47;1.65;;;0.40;;
23712;SDS011;12035;49.978;8.298;2022-07-04T15:47:45;1.55;;;0.50;;
23712;SDS011;12035;49.978;8.298;2022-07-04T15:52:42;2.67;;;0.50;;
23712;SDS011;12035;49.978;8.298;2022-07-04T15:57:39;1.10;;;0.40;;
23712;SDS011;12035;49.978;8.298;2022-07-04T16:02:36;0.90;;;0.40;;
23712;SDS011;12035;49.978;8.298;2022-07-04T16:07:35;0.50;;;0.40;;
23712;SDS011;12035;49.978;8.298;2022-07-04T16:12:32;1.42;;;0.50;;
23712;SDS011;12035;49.978;8.298;2022-07-04T16:17:30;4.28;;;0.60;;
23712;SDS011;12035;49.978;8.298;2022-07-04T16:22:27;1.02;;;0.45;;
23712;SDS011;12035;49.978;8.298;2022-07-04T16:27:26;1.50;;;0.55;;
23712;SDS011;12035;49.978;8.298;2022-07-04T16:32:23;1.70;;;0.50;;
23712;SDS011;12035;49.978;8.298;2022-07-04T16:37:20;4.90;;;0.60;;
23712;SDS011;12035;49.978;8.298;2022-07-04T16:42:17;1.70;;;0.60;;
23712;SDS011;12035;49.978;8.298;2022-07-04T16:47:16;3.55;;;0.90;;
23712;SDS011;12035;49.978;8.298;2022-07-04T16:52:13;0.90;;;0.60;;
23712;SDS011;12035;49.978;8.298;2022-07-04T16:57:10;2.30;;;0.73;;
23712;SDS011;12035;49.978;8.298;2022-07-04T17:02:07;2.55;;;0.60;;
23712;SDS011;12035;49.978;8.298;2022-07-04T17:07:06;1.05;;;0.50;;
23712;SDS011;12035;49.978;8.298;2022-07-04T17:12:03;2.30;;;0.63;;
23712;SDS011;12035;49.978;8.298;2022-07-04T17:17:01;1.88;;;0.52;;
23712;SDS011;12035;49.978;8.298;2022-07-04T17:21:58;4.32;;;0.90;;
23712;SDS011;12035;49.978;8.298;2022-07-04T17:26:57;1.67;;;0.70;;
23712;SDS011;12035;49.978;8.298;2022-07-04T17:31:54;1.08;;;0.70;;
23712;SDS011;12035;49.978;8.298;2022-07-04T17:36:51;0.75;;;0.57;;
23712;SDS011;12035;49.978;8.298;2022-07-04T17:41:48;1.73;;;0.70;;
23712;SDS011;12035;49.978;8.298;2022-07-04T17:46:47;2.95;;;0.82;;
23712;SDS011;12035;49.978;8.298;2022-07-04T17:51:44;0.88;;;0.57;;
23712;SDS011;12035;49.978;8.298;2022-07-04T17:56:42;1.65;;;0.68;;
23712;SDS011;12035;49.978;8.298;2022-07-04T18:01:39;1.52;;;0.60;;
23712;SDS011;12035;49.978;8.298;2022-07-04T18:06:38;1.05;;;0.50;;
23712;SDS011;12035;49.978;8.298;2022-07-04T18:11:35;1.45;;;0.73;;
23712;SDS011;12035;49.978;8.298;2022-07-04T18:16:32;1.25;;;0.60;;
23712;SDS011;12035;49.978;8.298;2022-07-04T18:21:30;1.70;;;0.70;;
23712;SDS011;12035;49.978;8.298;2022-07-04T18:26:28;1.33;;;0.50;;
23712;SDS011;12035;49.978;8.298;2022-07-04T18:31:26;3.45;;;0.60;;
23712;SDS011;12035;49.978;8.298;2022-07-04T18:36:23;2.67;;;0.57;;
23712;SDS011;12035;49.978;8.298;2022-07-04T18:41:20;1.88;;;0.75;;
23712;SDS011;12035;49.978;8.298;2022-07-04T18:46:37;1.02;;;0.60;;
23712;SDS011;12035;49.978;8.298;2022-07-04T18:51:34;1.27;;;0.70;;
23712;SDS011;12035;49.978;8.298;2022-07-04T18:56:32;1.27;;;0.60;;
23712;SDS011;12035;49.978;8.298;2022-07-04T19:01:30;1.13;;;0.57;;
23712;SDS011;12035;49.978;8.298;2022-07-04T19:06:28;2.90;;;0.68;;
23712;SDS011;12035;49.978;8.298;2022-07-04T19:11:25;1.73;;;0.75;;
23712;SDS011;12035;49.978;8.298;2022-07-04T19:16:22;2.00;;;0.40;;
23712;SDS011;12035;49.978;8.298;2022-07-04T19:21:20;1.27;;;0.65;;
23712;SDS011;12035;49.978;8.298;2022-07-04T19:26:19;3.35;;;0.55;;
23712;SDS011;12035;49.978;8.298;2022-07-04T19:31:16;4.13;;;0.60;;
23712;SDS011;12035;49.978;8.298;2022-07-04T19:36:13;1.45;;;0.63;;
23712;SDS011;12035;49.978;8.298;2022-07-04T19:41:12;1.92;;;0.52;;
23712;SDS011;12035;49.978;8.298;2022-07-04T19:46:11;4.43;;;0.68;;
23712;SDS011;12035;49.978;8.298;2022-07-04T19:51:09;1.10;;;0.40;;
23712;SDS011;12035;49.978;8.298;2022-07-04T19:56:06;1.52;;;0.60;;
23712;SDS011;12035;49.978;8.298;2022-07-04T20:01:04;6.15;;;0.60;;
23712;SDS011;12035;49.978;8.298;2022-07-04T20:06:03;3.58;;;0.98;;
23712;SDS011;12035;49.978;8.298;2022-07-04T20:11:00;2.60;;;0.55;;
23712;SDS011;12035;49.978;8.298;2022-07-04T20:15:58;0.82;;;0.60;;
23712;SDS011;12035;49.978;8.298;2022-07-04T20:20:55;1.95;;;0.40;;
23712;SDS011;12035;49.978;8.298;2022-07-04T20:25:53;2.17;;;0.80;;
23712;SDS011;12035;49.978;8.298;2022-07-04T20:30:50;1.63;;;0.77;;
23712;SDS011;12035;49.978;8.298;2022-07-04T20:35:48;2.45;;;0.80;;
23712;SDS011;12035;49.978;8.298;2022-07-04T20:40:45;2.95;;;0.70;;
23712;SDS011;12035;49.978;8.298;2022-07-04T20:45:44;7.00;;;0.70;;
23712;SDS011;12035;49.978;8.298;2022-07-04T20:50:41;1.70;;;0.82;;
23712;SDS011;12035;49.978;8.298;2022-07-04T20:55:38;1.50;;;0.80;;
23712;SDS011;12035;49.978;8.298;2022-07-04T21:00:35;1.50;;;0.80;;
23712;SDS011;12035;49.978;8.298;2022-07-04T21:05:34;1.77;;;0.70;;
23712;SDS011;12035;49.978;8.298;2022-07-04T21:10:32;3.22;;;0.80;;
23712;SDS011;12035;49.978;8.298;2022-07-04T21:15:29;4.03;;;0.57;;
23712;SDS011;12035;49.978;8.298;2022-07-04T21:20:26;2.65;;;0.73;;
23712;SDS011;12035;49.978;8.298;2022-07-04T21:25:24;1.60;;;0.90;;
23712;SDS011;12035;49.978;8.298;2022-07-04T21:30:22;1.40;;;0.70;;
23712;SDS011;12035;49.978;8.298;2022-07-04T21:35:19;2.63;;;0.95;;
23712;SDS011;12035;49.978;8.298;2022-07-04T21:40:16;1.90;;;1.02;;
23712;SDS011;12035;49.978;8.298;2022-07-04T21:45:15;3.45;;;1.50;;
23712;SDS011;12035;49.978;8.298;2022-07-04T21:50:12;4.15;;;1.42;;
23712;SDS011;12035;49.978;8.298;2022-07-04T21:55:09;2.88;;;1.77;;
23712;SDS011;12035;49.978;8.298;2022-07-04T22:00:08;3.00;;;1.90;;
23712;SDS011;12035;49.978;8.298;2022-07-04T22:05:08;4.05;;;1.75;;
23712;SDS011;12035;49.978;8.298;2022-07-04T22:10:06;3.88;;;1.65;;
23712;SDS011;12035;49.978;8.298;2022-07-04T22:15:05;5.47;;;1.75;;
23712;SDS011;12035;49.978;8.298;2022-07-04T22:20:04;5.05;;;1.40;;
23712;SDS011;12035;49.978;8.298;2022-07-04T22:25:04;1.85;;;1.17;;
23712;SDS011;12035;49.978;8.298;2022-07-04T22:30:03;2.35;;;1.13;;
23712;SDS011;12035;49.978;8.298;2022-07-04T22:35:02;1.83;;;1.00;;
23712;SDS011;12035;49.978;8.298;2022-07-04T22:40:00;1.50;;;0.70;;
23712;SDS011;12035;49.978;8.298;2022-07-04T22:44:58;1.88;;;0.82;;
23712;SDS011;12035;49.978;8.298;2022-07-04T22:49:55;2.65;;;1.10;;
23712;SDS011;12035;49.978;8.298;2022-07-04T22:54:52;2.25;;;0.85;;
23712;SDS011;12035;49.978;8.298;2022-07-04T22:59:50;2.75;;;1.10;;
23712;SDS011;12035;49.978;8.298;2022-07-04T23:04:51;2.63;;;0.88;;
23712;SDS011;12035;49.978;8.298;2022-07-04T23:09:49;1.60;;;0.70;;
23712;SDS011;12035;49.978;8.298;2022-07-04T23:14:47;4.07;;;1.05;;
23712;SDS011;12035;49.978;8.298;2022-07-04T23:19:45;1.63;;;0.90;;
23712;SDS011;12035;49.978;8.298;2022-07-04T23:24:43;2.92;;;0.77;;
23712;SDS011;12035;49.978;8.298;2022-07-04T23:29:40;2.13;;;0.85;;
23712;SDS011;12035;49.978;8.298;2022-07-04T23:34:37;2.22;;;0.80;;
23712;SDS011;12035;49.978;8.298;2022-07-04T23:39:34;5.65;;;0.90;;
23712;SDS011;12035;49.978;8.298;2022-07-04T23:44:33;1.58;;;0.80;;
23712;SDS011;12035;49.978;8.298;2022-07-04T23:49:30;1.38;;;0.70;;
23712;SDS011;12035;49.978;8.298;2022-07-04T23:54:27;2.58;;;0.80;;
23712;SDS011;12035;49.978;8.298;2022-07-04T23:59:24;1.98;;;0.80;;
